createdAt,value
2023-02-26T00:01:28.608Z,94540.66
2023-02-26T00:03:58.006Z,94535.25
2023-02-26T00:06:26.386Z,94536.38
2023-02-26T00:08:54.146Z,94537.72
2023-02-26T00:11:21.874Z,94531.06
2023-02-26T00:13:49.301Z,94546.28
2023-02-26T00:16:27.909Z,94546.56
2023-02-26T00:18:59.528Z,94548.69
2023-02-26T00:21:27.025Z,94546.06
2023-02-26T00:23:53.706Z,94556.00
2023-02-26T00:26:20.933Z,94559.44
2023-02-26T00:28:47.858Z,94549.06
2023-02-26T00:31:15.582Z,94554.13
2023-02-26T00:33:42.777Z,94555.75
2023-02-26T00:36:21.628Z,94558.97
2023-02-26T00:38:56.401Z,94567.00
2023-02-26T00:41:23.201Z,94564.59
2023-02-26T00:43:49.936Z,94567.53
2023-02-26T00:46:36.907Z,94567.78
2023-02-26T00:49:18.105Z,94565.13
2023-02-26T00:51:58.286Z,94575.00
2023-02-26T00:54:29.998Z,94571.03
2023-02-26T00:56:58.541Z,94566.47
2023-02-26T00:59:25.736Z,94575.06
2023-02-26T01:01:53.071Z,94575.84
2023-02-26T01:04:23.298Z,94578.50
2023-02-26T01:06:53.498Z,94584.41
2023-02-26T01:09:26.414Z,94579.56
2023-02-26T01:11:55.410Z,94575.00
2023-02-26T01:14:23.204Z,94580.91
2023-02-26T01:17:27.040Z,94572.91
2023-02-26T01:19:59.824Z,94572.63
2023-02-26T01:22:55.784Z,94576.66
2023-02-26T01:25:30.254Z,94569.41
2023-02-26T01:27:56.979Z,94578.75
2023-02-26T01:30:24.268Z,94574.22
2023-02-26T01:33:13.937Z,94574.19
2023-02-26T01:35:57.589Z,94581.41
2023-02-26T01:39:01.754Z,94572.34
2023-02-26T01:41:49.842Z,94576.53
2023-02-26T01:44:29.856Z,94577.69
2023-02-26T01:47:02.346Z,94576.84
2023-02-26T01:49:29.769Z,94579.06
2023-02-26T01:51:58.883Z,94580.63
2023-02-26T01:54:31.080Z,94586.75
2023-02-26T01:57:06.461Z,94581.41
2023-02-26T01:59:36.761Z,94596.94
2023-02-26T02:02:07.934Z,94590.34
2023-02-26T02:04:34.820Z,94591.34
2023-02-26T02:07:02.114Z,94594.31
2023-02-26T02:09:28.746Z,94598.38
2023-02-26T02:12:29.086Z,94598.63
2023-02-26T02:15:14.628Z,94606.13
2023-02-26T02:18:01.594Z,94603.81
2023-02-26T02:20:54.642Z,94619.59
2023-02-26T02:23:33.208Z,94608.44
2023-02-26T02:26:36.674Z,94613.22
2023-02-26T02:29:53.504Z,94621.22
2023-02-26T02:32:36.290Z,94615.31
2023-02-26T02:35:23.436Z,94617.44
2023-02-26T02:37:58.650Z,94615.03
2023-02-26T02:40:34.094Z,94620.16
2023-02-26T02:43:40.918Z,94623.63
2023-02-26T02:46:12.311Z,94628.97
2023-02-26T02:48:44.238Z,94618.84
2023-02-26T02:51:17.082Z,94626.31
2023-02-26T02:53:50.492Z,94623.63
2023-02-26T02:56:23.716Z,94627.63
2023-02-26T02:58:56.504Z,94635.13
2023-02-26T03:01:27.686Z,94632.44
2023-02-26T03:04:02.885Z,94630.81
2023-02-26T03:06:30.812Z,94640.44
2023-02-26T03:08:58.747Z,94631.09
2023-02-26T03:11:25.279Z,94631.38
2023-02-26T03:13:53.730Z,94631.38
2023-02-26T03:16:45.450Z,94641.78
2023-02-26T03:19:22.744Z,94646.38
2023-02-26T03:22:17.206Z,94646.38
2023-02-26T03:25:04.630Z,94651.19
2023-02-26T03:27:35.919Z,94649.31
2023-02-26T03:30:14.223Z,94652.78
2023-02-26T03:33:01.394Z,94657.31
2023-02-26T03:35:28.266Z,94664.56
2023-02-26T03:38:00.725Z,94665.63
2023-02-26T03:40:32.395Z,94666.72
2023-02-26T03:43:06.403Z,94669.16
2023-02-26T03:45:35.787Z,94672.88
2023-02-26T03:48:07.878Z,94677.16
2023-02-26T03:50:45.979Z,94680.38
2023-02-26T03:53:43.652Z,94684.38
2023-02-26T03:56:21.661Z,94685.72
2023-02-26T03:59:23.791Z,94686.78
2023-02-26T04:02:20.735Z,94683.59
2023-02-26T04:04:55.982Z,94692.38
2023-02-26T04:07:23.184Z,94698.25
2023-02-26T04:09:51.790Z,94702.00
2023-02-26T04:12:25.391Z,94699.06
2023-02-26T04:14:55.418Z,94698.28
2023-02-26T04:17:22.203Z,94691.06
2023-02-26T04:19:49.050Z,94693.72
2023-02-26T04:22:16.303Z,94697.72
2023-02-26T04:24:42.892Z,94702.78
2023-02-26T04:27:10.003Z,94706.53
2023-02-26T04:29:36.672Z,94710.25
2023-02-26T04:32:03.536Z,94708.09
2023-02-26T04:34:30.216Z,94710.78
2023-02-26T04:36:56.870Z,94711.56
2023-02-26T04:39:23.507Z,94716.88
2023-02-26T04:41:50.537Z,94716.88
2023-02-26T04:44:17.293Z,94727.56
2023-02-26T04:46:44.024Z,94723.81
2023-02-26T04:49:10.709Z,94731.00
2023-02-26T04:51:41.020Z,94728.59
2023-02-26T04:54:08.411Z,94737.38
2023-02-26T04:56:35.377Z,94740.81
2023-02-26T04:59:03.406Z,94742.41
2023-02-26T05:01:31.466Z,94743.22
2023-02-26T05:03:58.985Z,94746.09
2023-02-26T05:06:26.106Z,94745.53
2023-02-26T05:08:53.015Z,94750.84
2023-02-26T05:11:19.709Z,94741.25
2023-02-26T05:13:46.970Z,94749.19
2023-02-26T05:16:13.733Z,94753.44
2023-02-26T05:18:40.967Z,94754.50
2023-02-26T05:21:07.694Z,94752.06
2023-02-26T05:23:34.433Z,94750.44
2023-02-26T05:26:01.074Z,94753.88
2023-02-26T05:28:28.036Z,94761.84
2023-02-26T05:30:57.105Z,94754.06
2023-02-26T05:33:24.482Z,94755.88
2023-02-26T05:35:51.055Z,94755.88
2023-02-26T05:38:17.536Z,94760.34
2023-02-26T05:40:44.263Z,94766.47
2023-02-26T05:43:10.722Z,94777.03
2023-02-26T05:45:37.352Z,94780.47
2023-02-26T05:48:04.112Z,94786.03
2023-02-26T05:50:30.691Z,94792.97
2023-02-26T05:52:57.926Z,94787.41
2023-02-26T05:55:24.937Z,94791.41
2023-02-26T05:57:51.553Z,94796.25
2023-02-26T06:00:18.435Z,94804.25
2023-02-26T06:02:45.066Z,94800.84
2023-02-26T06:05:11.688Z,94802.72
2023-02-26T06:07:38.392Z,94805.44
2023-02-26T06:10:05.717Z,94805.72
2023-02-26T06:12:32.196Z,94800.66
2023-02-26T06:14:58.744Z,94806.06
2023-02-26T06:17:25.426Z,94821.50
2023-02-26T06:19:51.998Z,94818.59
2023-02-26T06:22:18.800Z,94828.97
2023-02-26T06:24:45.324Z,94841.78
2023-02-26T06:27:11.898Z,94839.69
2023-02-26T06:29:38.508Z,94838.91
2023-02-26T06:32:05.902Z,94845.31
2023-02-26T06:34:33.274Z,94841.34
2023-02-26T06:37:00.155Z,94845.91
2023-02-26T06:39:26.724Z,94851.25
2023-02-26T06:41:53.236Z,94858.22
2023-02-26T06:44:19.811Z,94866.25
2023-02-26T06:46:46.399Z,94873.75
2023-02-26T06:49:13.026Z,94873.53
2023-02-26T06:51:39.700Z,94870.94
2023-02-26T06:54:06.203Z,94877.38
2023-02-26T06:56:32.876Z,94877.13
2023-02-26T06:58:59.401Z,94885.69
2023-02-26T07:01:25.955Z,94877.47
2023-02-26T07:03:52.928Z,94888.41
2023-02-26T07:06:27.383Z,94892.97
2023-02-26T07:08:55.762Z,94902.59
2023-02-26T07:11:23.083Z,94898.56
2023-02-26T07:13:49.688Z,94895.13
2023-02-26T07:16:16.220Z,94897.28
2023-02-26T07:18:43.023Z,94893.03
2023-02-26T07:21:10.737Z,94900.47
2023-02-26T07:23:37.271Z,94898.66
2023-02-26T07:26:03.983Z,94908.78
2023-02-26T07:28:30.922Z,94917.06
2023-02-26T07:30:58.202Z,94920.53
2023-02-26T07:33:25.157Z,94923.44
2023-02-26T07:35:51.818Z,94929.06
2023-02-26T07:38:19.633Z,94925.88
2023-02-26T07:40:46.437Z,94922.16
2023-02-26T07:43:13.099Z,94919.25
2023-02-26T07:45:39.676Z,94923.53
2023-02-26T07:48:06.292Z,94921.16
2023-02-26T07:50:33.178Z,94927.34
2023-02-26T07:52:59.652Z,94933.75
2023-02-26T07:55:26.426Z,94943.91
2023-02-26T07:57:52.956Z,94946.81
2023-02-26T08:00:19.790Z,94948.72
2023-02-26T08:02:46.347Z,94958.31
2023-02-26T08:05:12.931Z,94968.44
2023-02-26T08:07:39.495Z,94960.97
2023-02-26T08:10:06.283Z,94963.09
2023-02-26T08:12:32.786Z,94965.50
2023-02-26T08:14:59.308Z,94974.88
2023-02-26T08:17:26.135Z,94978.88
2023-02-26T08:19:52.725Z,94976.72
2023-02-26T08:22:19.872Z,94979.13
2023-02-26T08:24:46.579Z,94983.44
2023-02-26T08:27:13.701Z,94983.44
2023-02-26T08:29:40.310Z,94975.94
2023-02-26T08:32:06.908Z,94982.13
2023-02-26T08:34:33.712Z,94980.81
2023-02-26T08:37:00.390Z,94983.47
2023-02-26T08:39:26.932Z,94988.81
2023-02-26T08:41:53.408Z,94993.06
2023-02-26T08:44:19.949Z,94990.44
2023-02-26T08:46:46.442Z,95000.34
2023-02-26T08:49:12.943Z,95001.91
2023-02-26T08:51:39.442Z,95001.41
2023-02-26T08:54:05.968Z,95005.94
2023-02-26T08:56:32.632Z,95010.50
2023-02-26T08:58:59.175Z,95004.63
2023-02-26T09:01:25.990Z,95009.97
2023-02-26T09:03:52.689Z,95016.38
2023-02-26T09:06:19.228Z,95024.66
2023-02-26T09:08:45.701Z,95023.91
2023-02-26T09:11:12.366Z,95031.38
2023-02-26T09:13:39.112Z,95030.03
2023-02-26T09:16:06.233Z,95030.59
2023-02-26T09:18:33.712Z,95028.44
2023-02-26T09:21:00.489Z,95030.59
2023-02-26T09:23:27.115Z,95028.72
2023-02-26T09:25:54.628Z,95038.59
2023-02-26T09:28:22.160Z,95048.78
2023-02-26T09:30:51.928Z,95048.25
2023-02-26T09:33:18.819Z,95058.94
2023-02-26T09:35:48.601Z,95055.72
2023-02-26T09:38:15.855Z,95065.09
2023-02-26T09:40:51.059Z,95071.50
2023-02-26T09:43:54.907Z,95075.53
2023-02-26T09:46:42.590Z,95068.84
2023-02-26T09:49:17.905Z,95073.91
2023-02-26T09:51:50.134Z,95073.66
2023-02-26T09:54:24.850Z,95074.47
2023-02-26T09:56:58.512Z,95071.50
2023-02-26T09:59:29.473Z,95072.84
2023-02-26T10:02:05.643Z,95081.94
2023-02-26T10:04:51.901Z,95075.50
2023-02-26T10:07:40.687Z,95074.97
2023-02-26T10:10:33.268Z,95078.44
2023-02-26T10:13:00.527Z,95081.09
2023-02-26T10:15:39.091Z,95083.25
2023-02-26T10:18:18.911Z,95080.03
2023-02-26T10:21:15.166Z,95076.53
2023-02-26T10:23:46.153Z,95078.66
2023-02-26T10:26:54.009Z,95075.44
2023-02-26T10:29:29.224Z,95080.22
2023-02-26T10:31:59.792Z,95073.53
2023-02-26T10:34:38.510Z,95081.78
2023-02-26T10:37:18.344Z,95078.53
2023-02-26T10:39:56.663Z,95075.06
2023-02-26T10:42:41.996Z,95075.09
2023-02-26T10:45:50.847Z,95067.59
2023-02-26T10:48:23.429Z,95075.13
2023-02-26T10:50:53.090Z,95072.75
2023-02-26T10:53:22.121Z,95065.75
2023-02-26T10:55:51.538Z,95058.81
2023-02-26T10:58:23.329Z,95062.00
2023-02-26T11:00:52.839Z,95044.88
2023-02-26T11:03:24.868Z,95044.88
2023-02-26T11:05:51.394Z,95042.44
2023-02-26T11:08:32.102Z,95045.91
2023-02-26T11:11:03.936Z,95040.81
2023-02-26T11:13:36.613Z,95030.88
2023-02-26T11:16:10.267Z,95035.91
2023-02-26T11:18:40.365Z,95037.53
2023-02-26T11:21:08.436Z,95029.28
2023-02-26T11:23:35.090Z,95033.59
2023-02-26T11:26:14.100Z,95041.66
2023-02-26T11:28:49.587Z,95041.94
2023-02-26T11:31:19.536Z,95048.03
2023-02-26T11:33:53.904Z,95058.16
2023-02-26T11:36:24.726Z,95070.97
2023-02-26T11:39:03.848Z,95074.16
2023-02-26T11:41:30.475Z,95076.31
2023-02-26T11:44:02.376Z,95077.66
2023-02-26T11:46:29.411Z,95078.44
2023-02-26T11:49:00.673Z,95083.56
2023-02-26T11:51:29.278Z,95078.47
2023-02-26T11:53:58.505Z,95079.59
2023-02-26T11:56:41.112Z,95086.59
2023-02-26T11:59:17.652Z,95089.56
2023-02-26T12:01:44.471Z,95093.56
2023-02-26T12:04:13.254Z,95086.00
2023-02-26T12:06:40.509Z,95088.13
2023-02-26T12:09:13.085Z,95084.31
2023-02-26T12:12:09.222Z,95075.41
2023-02-26T12:15:09.025Z,95080.69
2023-02-26T12:17:51.990Z,95093.28
2023-02-26T12:20:28.410Z,95080.66
2023-02-26T12:23:20.344Z,95082.03
2023-02-26T12:26:24.296Z,95088.50
2023-02-26T12:29:07.425Z,95090.16
2023-02-26T12:31:49.872Z,95097.63
2023-02-26T12:34:33.300Z,95088.84
2023-02-26T12:37:40.252Z,95085.56
2023-02-26T12:40:15.846Z,95090.00
2023-02-26T12:43:14.414Z,95097.34
2023-02-26T12:46:07.820Z,95087.75
2023-02-26T12:49:22.488Z,95090.47
2023-02-26T12:51:54.877Z,95080.03
2023-02-26T12:54:35.428Z,95075.19
2023-02-26T12:57:24.751Z,95063.47
2023-02-26T13:00:12.951Z,95059.66
2023-02-26T13:03:07.132Z,95053.25
2023-02-26T13:05:47.696Z,95056.47
2023-02-26T13:08:25.861Z,95058.50
2023-02-26T13:11:00.310Z,95060.34
2023-02-26T13:14:16.766Z,95067.47
2023-02-26T13:16:48.976Z,95065.25
2023-02-26T13:19:32.024Z,95060.81
2023-02-26T13:22:05.065Z,95069.59
2023-02-26T13:24:39.622Z,95071.13
2023-02-26T13:27:09.683Z,95069.28
2023-02-26T13:29:41.657Z,95078.53
2023-02-26T13:32:17.486Z,95083.66
2023-02-26T13:34:47.925Z,95072.88
2023-02-26T13:37:24.488Z,95075.56
2023-02-26T13:40:03.232Z,95081.44
2023-02-26T13:42:46.602Z,95074.69
2023-02-26T13:45:47.301Z,95065.81
2023-02-26T13:48:38.534Z,95068.72
2023-02-26T13:51:25.458Z,95081.28
2023-02-26T13:53:53.701Z,95088.81
2023-02-26T13:56:32.259Z,95093.97
2023-02-26T13:59:10.749Z,95098.00
2023-02-26T14:02:01.610Z,95098.09
2023-02-26T14:04:49.333Z,95094.69
2023-02-26T14:07:16.540Z,95095.59
2023-02-26T14:09:47.858Z,95113.06
2023-02-26T14:12:14.402Z,95104.78
2023-02-26T14:14:43.341Z,95104.53
2023-02-26T14:17:09.925Z,95105.34
2023-02-26T14:19:40.873Z,95106.16
2023-02-26T14:22:33.034Z,95108.56
2023-02-26T14:25:15.685Z,95104.78
2023-02-26T14:27:44.404Z,95101.78
2023-02-26T14:30:10.872Z,95110.56
2023-02-26T14:32:50.389Z,95115.22
2023-02-26T14:35:22.211Z,95130.81
2023-02-26T14:38:06.681Z,95139.44
2023-02-26T14:40:49.535Z,95150.00
2023-02-26T14:43:28.533Z,95151.94
2023-02-26T14:45:55.174Z,95137.28
2023-02-26T14:48:23.821Z,95138.91
2023-02-26T14:51:02.368Z,95132.22
2023-02-26T14:53:50.601Z,95129.59
2023-02-26T14:56:24.151Z,95137.59
2023-02-26T14:58:50.604Z,95132.28
2023-02-26T15:01:40.149Z,95144.56
2023-02-26T15:04:31.365Z,95145.63
2023-02-26T15:07:12.264Z,95152.06
2023-02-26T15:09:47.986Z,95158.22
2023-02-26T15:12:24.760Z,95163.31
2023-02-26T15:15:11.165Z,95159.03
2023-02-26T15:17:46.181Z,95163.81
2023-02-26T15:20:53.109Z,95158.22
2023-02-26T15:23:41.101Z,95162.50
2023-02-26T15:26:15.601Z,95159.28
2023-02-26T15:28:43.158Z,95167.31
2023-02-26T15:31:13.538Z,95168.66
2023-02-26T15:33:41.056Z,95164.41
2023-02-26T15:36:13.060Z,95174.84
2023-02-26T15:38:45.847Z,95170.28
2023-02-26T15:41:13.429Z,95183.41
2023-02-26T15:43:46.045Z,95188.47
2023-02-26T15:46:12.739Z,95194.88
2023-02-26T15:48:41.781Z,95184.72
2023-02-26T15:51:10.375Z,95186.63
2023-02-26T15:53:42.467Z,95189.28
2023-02-26T15:56:13.665Z,95188.19
2023-02-26T15:58:44.093Z,95182.31
2023-02-26T16:01:19.345Z,95189.00
2023-02-26T16:03:47.025Z,95193.31
2023-02-26T16:06:17.864Z,95196.00
2023-02-26T16:08:44.408Z,95199.72
2023-02-26T16:11:13.033Z,95199.19
2023-02-26T16:13:43.468Z,95201.88
2023-02-26T16:16:22.464Z,95216.31
2023-02-26T16:18:49.186Z,95215.53
2023-02-26T16:21:27.582Z,95211.22
2023-02-26T16:23:56.861Z,95214.44
2023-02-26T16:26:47.838Z,95219.00
2023-02-26T16:29:22.905Z,95228.63
2023-02-26T16:31:54.146Z,95239.34
2023-02-26T16:34:49.657Z,95234.50
2023-02-26T16:37:28.474Z,95244.94
2023-02-26T16:40:04.801Z,95245.75
2023-02-26T16:42:53.030Z,95258.03
2023-02-26T16:45:25.521Z,95259.88
2023-02-26T16:47:55.330Z,95260.94
2023-02-26T16:50:26.457Z,95277.25
2023-02-26T16:53:08.029Z,95265.19
2023-02-26T16:55:37.627Z,95272.38
2023-02-26T16:58:07.545Z,95268.13
2023-02-26T17:00:35.783Z,95267.81
2023-02-26T17:03:12.587Z,95275.81
2023-02-26T17:05:42.331Z,95274.75
2023-02-26T17:08:10.849Z,95278.47
2023-02-26T17:10:47.064Z,95283.56
2023-02-26T17:13:19.903Z,95292.09
2023-02-26T17:15:47.613Z,95299.53
2023-02-26T17:18:14.262Z,95300.88
2023-02-26T17:20:41.092Z,95314.25
2023-02-26T17:23:08.809Z,95308.09
2023-02-26T17:25:39.807Z,95307.53
2023-02-26T17:28:07.330Z,95318.50
2023-02-26T17:30:34.069Z,95319.00
2023-02-26T17:33:02.354Z,95317.09
2023-02-26T17:35:28.989Z,95329.94
2023-02-26T17:37:55.579Z,95339.00
2023-02-26T17:40:26.021Z,95341.91
2023-02-26T17:42:52.894Z,95331.47
2023-02-26T17:45:20.636Z,95346.94
2023-02-26T17:47:48.138Z,95353.06
2023-02-26T17:50:23.747Z,95355.97
2023-02-26T17:52:50.511Z,95368.22
2023-02-26T17:55:17.064Z,95371.91
2023-02-26T17:57:43.668Z,95367.34
2023-02-26T18:00:14.092Z,95375.56
2023-02-26T18:02:41.725Z,95377.97
2023-02-26T18:05:08.903Z,95376.31
2023-02-26T18:07:35.713Z,95389.63
2023-02-26T18:10:02.264Z,95391.47
2023-02-26T18:12:28.843Z,95389.81
2023-02-26T18:14:55.520Z,95396.69
2023-02-26T18:17:29.269Z,95397.44
2023-02-26T18:19:55.756Z,95398.78
2023-02-26T18:22:23.473Z,95393.69
2023-02-26T18:24:49.962Z,95396.03
2023-02-26T18:27:19.903Z,95401.13
2023-02-26T18:29:46.653Z,95402.50
2023-02-26T18:32:18.906Z,95410.50
2023-02-26T18:34:45.814Z,95416.88
2023-02-26T18:37:14.640Z,95410.69
2023-02-26T18:39:41.423Z,95409.63
2023-02-26T18:42:21.436Z,95412.91
2023-02-26T18:44:49.261Z,95416.94
2023-02-26T18:47:17.198Z,95409.75
2023-02-26T18:49:43.619Z,95418.00
2023-02-26T18:52:10.914Z,95403.75
2023-02-26T18:54:37.739Z,95412.84
2023-02-26T18:57:05.764Z,95411.16
2023-02-26T18:59:32.922Z,95404.16
2023-02-26T19:02:00.345Z,95400.22
2023-02-26T19:04:27.375Z,95405.56
2023-02-26T19:06:53.974Z,95403.91
2023-02-26T19:09:20.546Z,95407.88
2023-02-26T19:11:47.131Z,95412.72
2023-02-26T19:14:13.677Z,95414.94
2023-02-26T19:16:40.359Z,95416.25
2023-02-26T19:19:07.763Z,95424.03
2023-02-26T19:21:34.297Z,95416.19
2023-02-26T19:24:01.162Z,95418.94
2023-02-26T19:26:27.886Z,95427.22
2023-02-26T19:28:54.388Z,95422.41
2023-02-26T19:31:21.045Z,95426.06
2023-02-26T19:33:47.589Z,95434.31
2023-02-26T19:36:14.180Z,95441.28
2023-02-26T19:38:40.769Z,95439.91
2023-02-26T19:41:07.231Z,95440.97
2023-02-26T19:43:33.817Z,95446.00
2023-02-26T19:46:00.477Z,95442.72
2023-02-26T19:48:26.982Z,95438.69
2023-02-26T19:50:55.479Z,95442.41
2023-02-26T19:53:21.986Z,95442.59
2023-02-26T19:55:49.456Z,95438.34
2023-02-26T19:58:16.598Z,95438.25
2023-02-26T20:00:43.158Z,95445.16
2023-02-26T20:03:09.790Z,95435.59
2023-02-26T20:05:36.964Z,95446.25
2023-02-26T20:08:03.992Z,95445.16
2023-02-26T20:10:30.598Z,95445.09
2023-02-26T20:12:57.950Z,95450.34
2023-02-26T20:15:25.142Z,95455.94
2023-02-26T20:17:51.746Z,95461.22
2023-02-26T20:20:18.495Z,95459.03
2023-02-26T20:22:44.982Z,95465.94
2023-02-26T20:25:11.562Z,95470.69
2023-02-26T20:27:38.162Z,95470.38
2023-02-26T20:30:05.911Z,95469.25
2023-02-26T20:32:32.449Z,95475.91
2023-02-26T20:34:58.983Z,95480.09
2023-02-26T20:37:25.494Z,95487.31
2023-02-26T20:39:51.980Z,95486.50
2023-02-26T20:42:18.462Z,95492.09
2023-02-26T20:44:44.971Z,95488.81
2023-02-26T20:47:11.581Z,95494.16
2023-02-26T20:49:38.092Z,95498.22
2023-02-26T20:52:04.880Z,95495.00
2023-02-26T20:54:31.499Z,95495.47
2023-02-26T20:56:58.066Z,95502.41
2023-02-26T20:59:24.692Z,95497.06
2023-02-26T21:01:51.327Z,95505.66
2023-02-26T21:04:18.675Z,95503.22
2023-02-26T21:06:45.369Z,95503.22
2023-02-26T21:09:11.862Z,95504.34
2023-02-26T21:11:39.089Z,95508.47
2023-02-26T21:14:08.380Z,95499.19
2023-02-26T21:16:35.709Z,95509.75
2023-02-26T21:19:02.729Z,95506.53
2023-02-26T21:21:29.413Z,95505.72
2023-02-26T21:23:56.127Z,95506.78
2023-02-26T21:26:23.921Z,95505.66
2023-02-26T21:28:50.844Z,95507.59
2023-02-26T21:31:19.980Z,95512.59
2023-02-26T21:33:46.596Z,95513.91
2023-02-26T21:36:13.307Z,95523.97
2023-02-26T21:38:40.589Z,95513.56
2023-02-26T21:41:07.385Z,95519.72
2023-02-26T21:43:33.912Z,95521.81
2023-02-26T21:46:00.482Z,95518.34
2023-02-26T21:48:27.031Z,95523.66
2023-02-26T21:50:53.539Z,95526.56
2023-02-26T21:53:20.080Z,95524.47
2023-02-26T21:55:46.809Z,95530.63
2023-02-26T21:58:13.394Z,95533.06
2023-02-26T22:00:40.083Z,95525.28
2023-02-26T22:03:06.757Z,95533.28
2023-02-26T22:05:33.437Z,95542.75
2023-02-26T22:07:59.935Z,95536.69
2023-02-26T22:10:26.549Z,95550.34
2023-02-26T22:12:53.027Z,95542.81
2023-02-26T22:15:19.700Z,95543.38
2023-02-26T22:17:46.368Z,95550.66
2023-02-26T22:20:12.954Z,95552.09
2023-02-26T22:22:40.212Z,95546.84
2023-02-26T22:25:12.390Z,95554.09
2023-02-26T22:27:39.132Z,95546.16
2023-02-26T22:30:10.023Z,95559.44
2023-02-26T22:32:36.547Z,95554.63
2023-02-26T22:35:03.370Z,95554.41
2023-02-26T22:37:29.874Z,95553.91
2023-02-26T22:39:56.449Z,95555.84
2023-02-26T22:42:23.256Z,95560.44
2023-02-26T22:44:49.831Z,95556.44
2023-02-26T22:47:16.319Z,95556.78
2023-02-26T22:49:42.841Z,95554.84
2023-02-26T22:52:10.392Z,95556.53
2023-02-26T22:54:36.916Z,95556.53
2023-02-26T22:57:03.563Z,95552.97
2023-02-26T22:59:30.101Z,95551.59
2023-02-26T23:01:56.586Z,95555.09
2023-02-26T23:04:23.144Z,95552.44
2023-02-26T23:06:49.692Z,95544.97
2023-02-26T23:09:16.389Z,95554.84
2023-02-26T23:11:43.208Z,95547.41
2023-02-26T23:14:09.742Z,95558.09
2023-02-26T23:16:36.278Z,95559.22
2023-02-26T23:19:02.902Z,95563.47
2023-02-26T23:21:29.941Z,95562.75
2023-02-26T23:23:56.935Z,95570.13
2023-02-26T23:26:23.596Z,95569.56
2023-02-26T23:28:50.525Z,95573.31
2023-02-26T23:31:17.183Z,95571.38
2023-02-26T23:33:44.114Z,95578.78
2023-02-26T23:36:10.748Z,95581.16
2023-02-26T23:38:37.429Z,95582.22
2023-02-26T23:41:04.217Z,95574.72
2023-02-26T23:43:31.141Z,95580.03
2023-02-26T23:45:57.712Z,95584.31
2023-02-26T23:48:24.316Z,95582.47
2023-02-26T23:50:51.703Z,95578.72
2023-02-26T23:53:18.271Z,95580.84
2023-02-26T23:55:46.273Z,95575.75
2023-02-26T23:58:12.889Z,95572.91
